createdAt,value
2022-10-23T00:00:57.233Z,20.59
2022-10-23T00:06:09.402Z,20.62
2022-10-23T00:08:35.734Z,20.57
2022-10-23T00:11:02.094Z,20.61
2022-10-23T00:13:28.419Z,20.64
2022-10-23T00:15:54.743Z,20.63
2022-10-23T00:21:15.728Z,20.63
2022-10-23T00:23:42.080Z,20.60
2022-10-23T00:26:08.405Z,20.63
2022-10-23T00:28:34.799Z,20.60
2022-10-23T00:31:01.138Z,20.61
2022-10-23T00:36:11.257Z,20.60
2022-10-23T00:38:37.576Z,20.60
2022-10-23T00:41:03.949Z,20.58
2022-10-23T00:43:33.062Z,20.58
2022-10-23T00:45:59.399Z,20.59
2022-10-23T00:51:10.541Z,20.61
2022-10-23T00:53:36.863Z,20.59
2022-10-23T00:56:03.253Z,20.59
2022-10-23T00:58:30.443Z,20.60
2022-10-23T01:00:56.866Z,20.60
2022-10-23T01:06:17.348Z,20.60
2022-10-23T01:08:46.434Z,20.60
2022-10-23T01:11:12.773Z,20.59
2022-10-23T01:13:39.980Z,20.61
2022-10-23T01:16:07.179Z,20.60
2022-10-23T01:21:28.604Z,20.59
2022-10-23T01:23:55.796Z,20.58
2022-10-23T01:26:22.121Z,20.56
2022-10-23T01:28:48.453Z,20.57
2022-10-23T01:31:15.664Z,20.53
2022-10-23T01:36:35.877Z,20.63
2022-10-23T01:41:33.474Z,20.64
2022-10-23T01:43:59.824Z,20.63
2022-10-23T01:46:26.148Z,20.64
2022-10-23T01:51:36.586Z,20.66
2022-10-23T01:54:03.859Z,20.63
2022-10-23T01:56:30.174Z,20.64
2022-10-23T01:58:56.534Z,20.65
2022-10-23T02:01:22.969Z,20.62
2022-10-23T02:06:33.704Z,20.60
2022-10-23T02:09:00.045Z,20.61
2022-10-23T02:11:26.389Z,20.62
2022-10-23T02:13:53.577Z,20.64
2022-10-23T02:16:20.803Z,20.64
2022-10-23T02:21:30.939Z,20.65
2022-10-23T02:23:58.121Z,20.64
2022-10-23T02:26:24.446Z,20.63
2022-10-23T02:28:50.781Z,20.63
2022-10-23T02:31:17.990Z,20.61
2022-10-23T02:36:38.022Z,20.60
2022-10-23T02:39:04.419Z,20.62
2022-10-23T02:41:30.748Z,20.64
2022-10-23T02:43:57.062Z,20.63
2022-10-23T02:46:24.282Z,20.64
2022-10-23T02:51:34.431Z,20.66
2022-10-23T02:54:00.760Z,20.67
2022-10-23T02:56:27.090Z,20.70
2022-10-23T02:58:53.435Z,20.69
2022-10-23T03:01:19.910Z,20.66
2022-10-23T03:06:29.989Z,20.67
2022-10-23T03:08:56.317Z,20.65
2022-10-23T03:11:22.642Z,20.64
2022-10-23T03:13:48.955Z,20.62
2022-10-23T03:16:16.145Z,20.63
2022-10-23T03:21:36.138Z,20.62
2022-10-23T03:24:02.486Z,20.69
2022-10-23T03:26:28.818Z,20.67
2022-10-23T03:28:55.219Z,20.65
2022-10-23T03:31:21.547Z,20.61
2022-10-23T03:36:31.917Z,20.62
2022-10-23T03:38:58.254Z,20.61
2022-10-23T03:41:24.594Z,20.64
2022-10-23T03:43:51.832Z,20.61
2022-10-23T03:46:19.065Z,20.62
2022-10-23T03:48:45.382Z,20.64
2022-10-23T03:51:11.725Z,20.60
2022-10-23T03:53:38.956Z,20.60
2022-10-23T03:56:05.314Z,20.61
2022-10-23T03:58:31.722Z,20.62
2022-10-23T04:00:58.062Z,20.61
2022-10-23T04:03:24.410Z,20.61
2022-10-23T04:05:52.356Z,20.61
2022-10-23T04:08:20.163Z,20.60
2022-10-23T04:10:46.829Z,20.63
2022-10-23T04:13:13.137Z,20.61
2022-10-23T04:15:39.474Z,20.63
2022-10-23T04:18:05.801Z,20.68
2022-10-23T04:20:32.141Z,20.67
2022-10-23T04:22:58.489Z,20.71
2022-10-23T04:25:25.697Z,20.70
2022-10-23T04:27:52.031Z,20.71
2022-10-23T04:30:19.258Z,20.71
2022-10-23T04:32:46.458Z,20.71
2022-10-23T04:35:13.655Z,20.73
2022-10-23T04:37:43.083Z,20.69
2022-10-23T04:40:09.606Z,20.71
2022-10-23T04:42:38.778Z,20.71
2022-10-23T04:45:05.175Z,20.70
2022-10-23T04:47:34.360Z,20.70
2022-10-23T04:50:02.649Z,20.74
2022-10-23T04:52:29.857Z,20.76
2022-10-23T04:54:58.112Z,20.73
2022-10-23T04:57:26.392Z,20.71
2022-10-23T04:59:52.850Z,20.74
2022-10-23T05:02:21.123Z,20.70
2022-10-23T05:04:47.528Z,20.69
2022-10-23T05:07:13.950Z,20.68
2022-10-23T05:09:42.232Z,20.66
2022-10-23T05:12:10.512Z,20.67
2022-10-23T05:14:38.787Z,20.68
2022-10-23T05:17:05.273Z,20.67
2022-10-23T05:19:31.732Z,20.68
2022-10-23T05:24:54.946Z,20.68
2022-10-23T05:27:23.239Z,20.69
2022-10-23T05:29:52.419Z,20.76
2022-10-23T05:32:18.858Z,20.70
2022-10-23T05:34:47.117Z,20.68
2022-10-23T05:37:13.557Z,20.68
2022-10-23T05:39:39.936Z,20.68
2022-10-23T05:42:06.392Z,20.71
2022-10-23T05:44:33.676Z,20.73
2022-10-23T05:47:00.916Z,20.74
2022-10-23T05:49:27.394Z,20.74
2022-10-23T05:54:51.252Z,20.80
2022-10-23T05:59:49.016Z,20.81
2022-10-23T06:02:15.516Z,20.79
2022-10-23T06:04:43.864Z,20.80
2022-10-23T06:10:06.818Z,20.79
2022-10-23T06:12:33.286Z,20.67
2022-10-23T06:14:59.717Z,20.52
2022-10-23T06:17:27.185Z,20.43
2022-10-23T06:19:53.646Z,20.43
2022-10-23T06:25:04.063Z,20.24
2022-10-23T06:27:31.456Z,20.21
2022-10-23T06:29:57.974Z,20.14
2022-10-23T06:32:25.338Z,20.21
2022-10-23T06:34:52.898Z,20.18
2022-10-23T06:40:14.462Z,20.09
2022-10-23T06:42:42.434Z,20.07
2022-10-23T06:45:09.075Z,20.06
2022-10-23T06:47:35.617Z,19.98
2022-10-23T06:50:02.050Z,19.93
2022-10-23T06:55:23.564Z,19.95
2022-10-23T06:57:49.969Z,19.91
2022-10-23T07:00:17.284Z,19.88
2022-10-23T07:02:43.929Z,19.91
2022-10-23T07:05:13.657Z,19.89
2022-10-23T07:10:35.329Z,19.96
2022-10-23T07:13:02.669Z,19.95
2022-10-23T07:15:29.107Z,20.04
2022-10-23T07:17:57.386Z,20.09
2022-10-23T07:20:23.755Z,20.02
2022-10-23T07:25:34.350Z,19.95
2022-10-23T07:28:00.759Z,19.95
2022-10-23T07:30:28.017Z,19.89
2022-10-23T07:32:54.429Z,19.92
2022-10-23T07:35:21.799Z,19.95
2022-10-23T07:40:33.156Z,20.13
2022-10-23T07:43:00.469Z,20.12
2022-10-23T07:45:26.960Z,20.22
2022-10-23T07:47:53.503Z,20.16
2022-10-23T07:50:19.905Z,20.11
2022-10-23T07:55:40.508Z,20.08
2022-10-23T07:58:07.932Z,19.95
2022-10-23T08:00:34.395Z,19.90
2022-10-23T08:03:01.763Z,19.82
2022-10-23T08:05:28.204Z,19.95
2022-10-23T08:10:48.438Z,19.94
2022-10-23T08:13:14.940Z,19.98
2022-10-23T08:15:42.346Z,19.97
2022-10-23T08:18:08.809Z,19.93
2022-10-23T08:20:35.233Z,19.90
2022-10-23T08:25:47.516Z,19.86
2022-10-23T08:28:13.996Z,19.87
2022-10-23T08:30:41.304Z,19.89
2022-10-23T08:33:07.762Z,19.88
2022-10-23T08:35:35.158Z,19.91
2022-10-23T08:40:55.562Z,20.22
2022-10-23T08:43:22.913Z,20.59
2022-10-23T08:45:50.256Z,20.49
2022-10-23T08:48:16.704Z,20.26
2022-10-23T08:50:43.973Z,20.54
2022-10-23T08:56:05.139Z,20.43
2022-10-23T08:58:32.467Z,20.56
2022-10-23T09:00:59.857Z,20.55
2022-10-23T09:03:27.187Z,20.54
2022-10-23T09:05:54.476Z,20.51
2022-10-23T09:11:05.572Z,20.34
2022-10-23T09:13:32.840Z,20.80
2022-10-23T09:15:59.266Z,20.66
2022-10-23T09:18:26.538Z,20.69
2022-10-23T09:20:53.849Z,20.52
2022-10-23T09:26:06.092Z,20.51
2022-10-23T09:28:33.441Z,20.58
2022-10-23T09:30:59.879Z,20.62
2022-10-23T09:33:27.198Z,20.33
2022-10-23T09:35:53.687Z,20.31
2022-10-23T09:41:05.102Z,20.21
2022-10-23T09:43:32.466Z,20.01
2022-10-23T09:45:58.919Z,20.03
2022-10-23T09:48:25.696Z,19.97
2022-10-23T09:50:53.076Z,20.10
2022-10-23T09:56:15.320Z,19.98
2022-10-23T09:58:41.821Z,19.99
2022-10-23T10:01:09.299Z,20.24
2022-10-23T10:03:36.746Z,20.33
2022-10-23T10:06:03.224Z,20.06
2022-10-23T10:11:23.880Z,20.03
2022-10-23T10:13:50.329Z,19.63
2022-10-23T10:16:17.717Z,19.68
2022-10-23T10:18:45.226Z,19.84
2022-10-23T10:21:12.607Z,19.93
2022-10-23T10:26:34.907Z,20.06
2022-10-23T10:29:02.312Z,20.03
2022-10-23T10:31:28.758Z,19.71
2022-10-23T10:33:56.117Z,19.86
2022-10-23T10:36:23.525Z,19.94
2022-10-23T10:41:44.057Z,20.10
2022-10-23T10:44:10.535Z,20.09
2022-10-23T10:46:36.967Z,20.08
2022-10-23T10:49:03.384Z,20.03
2022-10-23T10:51:30.719Z,20.04
2022-10-23T10:56:42.158Z,19.80
2022-10-23T10:59:09.515Z,19.91
2022-10-23T11:01:36.972Z,20.01
2022-10-23T11:04:04.526Z,20.01
2022-10-23T11:06:31.939Z,19.91
2022-10-23T11:11:42.759Z,19.90
2022-10-23T11:14:10.128Z,19.86
2022-10-23T11:16:37.489Z,19.92
2022-10-23T11:19:03.894Z,19.68
2022-10-23T11:21:30.335Z,19.64
2022-10-23T11:26:42.703Z,19.89
2022-10-23T11:29:09.173Z,19.80
2022-10-23T11:31:35.617Z,19.83
2022-10-23T11:34:03.005Z,19.76
2022-10-23T11:36:30.342Z,19.80
2022-10-23T11:41:42.877Z,19.97
2022-10-23T11:44:10.257Z,19.98
2022-10-23T11:46:36.681Z,19.97
2022-10-23T11:49:04.096Z,19.98
2022-10-23T11:51:31.476Z,20.03
2022-10-23T11:56:52.519Z,20.08
2022-10-23T11:59:19.897Z,20.05
2022-10-23T12:01:47.349Z,20.01
2022-10-23T12:04:13.873Z,19.99
2022-10-23T12:06:40.323Z,20.00
2022-10-23T12:12:00.623Z,20.05
2022-10-23T12:14:27.091Z,20.07
2022-10-23T12:16:53.816Z,20.08
2022-10-23T12:19:20.321Z,20.14
2022-10-23T12:21:47.692Z,20.11
2022-10-23T12:26:58.862Z,20.05
2022-10-23T12:29:25.301Z,20.10
2022-10-23T12:31:52.643Z,20.12
2022-10-23T12:34:19.084Z,20.17
2022-10-23T12:36:45.586Z,20.16
2022-10-23T12:41:57.197Z,20.16
2022-10-23T12:44:24.607Z,20.15
2022-10-23T12:46:51.072Z,20.09
2022-10-23T12:49:18.506Z,20.04
2022-10-23T12:51:46.010Z,20.09
2022-10-23T12:57:07.468Z,20.19
2022-10-23T12:59:33.918Z,20.27
2022-10-23T13:02:00.472Z,20.30
2022-10-23T13:04:27.026Z,20.21
2022-10-23T13:06:54.409Z,20.21
2022-10-23T13:12:14.870Z,20.22
2022-10-23T13:14:44.494Z,20.25
2022-10-23T13:17:11.201Z,20.20
2022-10-23T13:19:37.641Z,20.21
2022-10-23T13:22:05.039Z,20.15
2022-10-23T13:27:25.380Z,20.04
2022-10-23T13:29:51.835Z,20.00
2022-10-23T13:32:19.208Z,19.99
2022-10-23T13:34:53.742Z,20.01
2022-10-23T13:37:31.283Z,20.06
2022-10-23T13:42:52.354Z,19.94
2022-10-23T13:45:18.887Z,19.96
2022-10-23T13:47:45.672Z,20.05
2022-10-23T13:50:13.196Z,20.03
2022-10-23T13:52:39.651Z,19.94
2022-10-23T13:57:52.048Z,19.94
2022-10-23T14:00:18.517Z,20.01
2022-10-23T14:02:45.140Z,20.05
2022-10-23T14:05:12.592Z,20.05
2022-10-23T14:07:40.098Z,20.05
2022-10-23T14:13:01.609Z,19.97
2022-10-23T14:15:28.079Z,19.98
2022-10-23T14:17:59.042Z,19.97
2022-10-23T14:20:27.870Z,20.00
2022-10-23T14:22:55.418Z,20.01
2022-10-23T14:28:17.051Z,20.02
2022-10-23T14:30:43.544Z,20.02
2022-10-23T14:33:10.963Z,19.96
2022-10-23T14:35:38.376Z,19.93
2022-10-23T14:38:04.833Z,19.86
2022-10-23T14:43:15.534Z,19.89
2022-10-23T14:45:41.994Z,19.89
2022-10-23T14:48:08.518Z,19.90
2022-10-23T14:50:34.947Z,19.91
2022-10-23T14:53:02.331Z,19.89
2022-10-23T14:58:23.627Z,19.82
2022-10-23T15:00:50.117Z,19.89
2022-10-23T15:03:17.518Z,19.91
2022-10-23T15:05:44.897Z,19.88
2022-10-23T15:08:12.257Z,19.86
2022-10-23T15:13:33.734Z,19.93
2022-10-23T15:16:00.201Z,19.83
2022-10-23T15:18:26.670Z,19.86
2022-10-23T15:20:53.216Z,19.97
2022-10-23T15:23:20.618Z,20.09
2022-10-23T15:28:31.238Z,20.16
2022-10-23T15:30:57.972Z,20.19
2022-10-23T15:33:25.390Z,20.19
2022-10-23T15:38:19.264Z,20.20
2022-10-23T15:43:40.909Z,20.15
2022-10-23T15:46:07.380Z,20.14
2022-10-23T15:48:33.848Z,20.15
2022-10-23T15:51:00.309Z,20.16
2022-10-23T15:53:27.693Z,20.15
2022-10-23T16:01:16.410Z,20.15
2022-10-23T16:03:43.868Z,20.15
2022-10-23T16:06:10.387Z,20.19
2022-10-23T16:08:37.786Z,20.20
2022-10-23T16:13:49.221Z,20.14
2022-10-23T16:16:15.675Z,20.15
2022-10-23T16:18:43.105Z,20.20
2022-10-23T16:21:09.582Z,20.20
2022-10-23T16:23:36.949Z,20.21
2022-10-23T16:28:58.419Z,20.21
2022-10-23T16:31:24.916Z,20.19
2022-10-23T16:33:51.429Z,20.21
2022-10-23T16:36:18.835Z,20.19
2022-10-23T16:38:45.312Z,20.18
2022-10-23T16:43:38.168Z,20.19
2022-10-23T16:46:04.626Z,20.16
2022-10-23T16:48:32.000Z,20.20
2022-10-23T16:50:58.467Z,20.20
2022-10-23T16:53:25.883Z,20.20
2022-10-23T16:55:52.347Z,20.20
2022-10-23T16:58:19.784Z,20.20
2022-10-23T17:00:46.230Z,20.16
2022-10-23T17:03:12.701Z,20.17
2022-10-23T17:05:40.111Z,20.17
2022-10-23T17:08:06.577Z,20.17
2022-10-23T17:10:33.043Z,20.13
2022-10-23T17:12:59.538Z,20.10
2022-10-23T17:15:26.998Z,20.04
2022-10-23T17:17:53.525Z,20.03
2022-10-23T17:20:20.916Z,20.04
2022-10-23T17:22:47.390Z,20.03
2022-10-23T17:25:14.805Z,20.04
2022-10-23T17:27:41.625Z,20.05
2022-10-23T17:30:12.525Z,20.05
2022-10-23T17:32:39.277Z,20.05
2022-10-23T17:35:06.711Z,20.09
2022-10-23T17:37:33.167Z,20.10
2022-10-23T17:40:01.345Z,20.09
2022-10-23T17:42:28.123Z,20.10
2022-10-23T17:44:54.596Z,20.09
2022-10-23T17:47:21.983Z,20.09
2022-10-23T17:49:48.465Z,20.08
2022-10-23T17:52:15.835Z,20.09
2022-10-23T17:54:43.275Z,20.09
2022-10-23T17:57:10.678Z,20.07
2022-10-23T17:59:37.348Z,20.08
2022-10-23T18:02:04.895Z,20.07
2022-10-23T18:04:31.455Z,20.07
2022-10-23T18:07:00.106Z,20.07
2022-10-23T18:09:27.480Z,20.06
2022-10-23T18:11:53.963Z,20.06
2022-10-23T18:17:06.072Z,20.07
2022-10-23T18:19:32.578Z,20.06
2022-10-23T18:21:59.026Z,20.06
2022-10-23T18:24:25.522Z,20.06
2022-10-23T18:26:52.004Z,20.06
2022-10-23T18:32:14.469Z,20.05
2022-10-23T18:34:41.866Z,20.12
2022-10-23T18:37:09.262Z,20.17
2022-10-23T18:39:35.716Z,20.17
2022-10-23T18:47:22.682Z,20.21
2022-10-23T18:49:49.201Z,20.19
2022-10-23T18:52:15.658Z,20.20
2022-10-23T18:54:43.050Z,20.22
2022-10-23T18:57:10.453Z,20.21
2022-10-23T19:02:21.291Z,20.17
2022-10-23T19:04:48.804Z,20.17
2022-10-23T19:07:15.274Z,20.14
2022-10-23T19:09:41.723Z,20.14
2022-10-23T19:12:08.263Z,20.28
2022-10-23T19:17:19.584Z,20.44
2022-10-23T19:19:47.079Z,20.45
2022-10-23T19:22:13.494Z,20.46
2022-10-23T19:24:41.230Z,20.46
2022-10-23T19:27:08.627Z,20.52
2022-10-23T19:32:29.245Z,20.35
2022-10-23T19:34:55.694Z,20.48
2022-10-23T19:37:22.118Z,20.38
2022-10-23T19:39:49.456Z,20.30
2022-10-23T19:42:15.887Z,20.40
2022-10-23T19:47:28.251Z,20.41
2022-10-23T19:49:54.676Z,20.52
2022-10-23T19:52:22.077Z,20.55
2022-10-23T19:54:48.533Z,20.65
2022-10-23T19:57:17.043Z,20.46
2022-10-23T20:02:41.841Z,20.71
2022-10-23T20:05:08.281Z,20.62
2022-10-23T20:07:35.663Z,20.42
2022-10-23T20:10:02.121Z,20.63
2022-10-23T20:12:28.547Z,20.58
2022-10-23T20:17:50.132Z,20.67
2022-10-23T20:20:16.618Z,20.69
2022-10-23T20:22:44.272Z,20.56
2022-10-23T20:25:11.742Z,20.60
2022-10-23T20:27:38.206Z,20.56
2022-10-23T20:33:00.499Z,20.69
2022-10-23T20:35:27.882Z,20.71
2022-10-23T20:37:55.237Z,20.60
2022-10-23T20:40:22.574Z,20.65
2022-10-23T20:42:49.955Z,20.57
2022-10-23T20:48:00.623Z,20.76
2022-10-23T20:50:27.062Z,20.55
2022-10-23T20:52:53.480Z,20.43
2022-10-23T20:55:20.830Z,20.54
2022-10-23T20:57:49.758Z,20.44
2022-10-23T21:03:02.044Z,20.44
2022-10-23T21:05:29.430Z,20.48
2022-10-23T21:07:56.802Z,20.52
2022-10-23T21:10:24.167Z,20.50
2022-10-23T21:12:50.630Z,20.45
2022-10-23T21:18:26.285Z,20.45
2022-10-23T21:21:00.215Z,20.62
2022-10-23T21:23:26.671Z,20.47
2022-10-23T21:25:53.177Z,20.31
2022-10-23T21:28:19.646Z,20.40
2022-10-23T21:33:31.173Z,20.39
2022-10-23T21:35:58.429Z,20.32
2022-10-23T21:38:31.215Z,20.47
2022-10-23T21:40:57.713Z,20.45
2022-10-23T21:43:24.207Z,20.40
2022-10-23T21:48:36.805Z,20.34
2022-10-23T21:51:04.201Z,20.39
2022-10-23T21:53:31.588Z,20.42
2022-10-23T21:55:58.079Z,20.44
2022-10-23T21:58:24.534Z,20.40
2022-10-23T22:03:45.156Z,20.40
2022-10-23T22:06:12.531Z,20.44
2022-10-23T22:08:38.979Z,20.46
2022-10-23T22:11:06.387Z,20.35
2022-10-23T22:13:32.819Z,20.34
2022-10-23T22:18:54.813Z,20.27
2022-10-23T22:21:21.254Z,20.30
2022-10-23T22:23:47.693Z,20.23
2022-10-23T22:26:15.071Z,20.27
2022-10-23T22:28:41.519Z,20.25
2022-10-23T22:33:51.910Z,20.32
2022-10-23T22:36:18.365Z,20.24
2022-10-23T22:38:44.820Z,20.28
2022-10-23T22:41:12.167Z,20.34
2022-10-23T22:43:39.547Z,20.33
2022-10-23T22:48:50.211Z,20.30
2022-10-23T22:51:17.601Z,20.28
2022-10-23T22:53:44.045Z,20.26
2022-10-23T22:56:11.396Z,20.22
2022-10-23T22:58:37.871Z,20.22
2022-10-23T23:03:49.188Z,20.22
2022-10-23T23:06:15.646Z,20.20
2022-10-23T23:08:42.168Z,20.21
2022-10-23T23:11:08.633Z,20.22
2022-10-23T23:18:55.176Z,20.17
2022-10-23T23:21:21.644Z,20.19
2022-10-23T23:23:48.084Z,20.15
2022-10-23T23:26:15.454Z,20.24
2022-10-23T23:28:41.916Z,20.23
2022-10-23T23:34:02.452Z,20.23
2022-10-23T23:36:28.960Z,20.21
2022-10-23T23:38:56.439Z,20.23
2022-10-23T23:41:22.916Z,20.19
2022-10-23T23:43:49.381Z,20.13
2022-10-23T23:48:59.730Z,20.18
2022-10-23T23:51:26.180Z,20.13
2022-10-23T23:53:53.554Z,20.11
2022-10-23T23:56:19.988Z,20.21
2022-10-23T23:58:46.474Z,20.20
